EGKB METAR and TAF | Updated Today

EGKB METAR

London Biggin Hill Airport

Observation time: 12 min. ago

EGKB 051950Z VRB01KT CAVOK 02/00 Q1045

Need help? Read our tutorial on how to read METARs or read the parsed version below.

London Biggin Hill Airport (EGKB) METAR

  • Weather conditions on Sun, 05 Feb 2023 19:50:00 +0000 (12 min. ago):
  • Present conditions: Dry
  • Clouds: Clear skies
  • Visibility: Greater than 10 km
  • Wind: Variable at 1 knots
  • Temperature: 2 celsius
  • Dew point: 0 celsius
  • Pressure: 1045 millibars
  • Remarks: None


Useful to know...

EGKB TAF

London Biggin Hill Airport

TAF EGKB 051705Z 0518/0522 01008KT CAVOK BECMG 0520/0522 8000
Observation time: 2:57 hr. ago
Need help? Read our tutorial on how to read TAFs or read the parsed version below.

Parsed version of TAF for London Biggin Hill Airport (EGKB)

  • From 05 February at 18:00 UTC, to day 05 of the month at 22:00 UTC
  • Visibility: Greater than 10 km
  • Wind: 10 degrees at 8
  • Expected to arise soon, from 05 February at 20:00 UTC, to day 05 of the month at 22:00 UTC
  • Visibility: 8000 meters